sensor_id;sensor_type;location;lat;lon;timestamp;P1;durP1;ratioP1;P2;durP2;ratioP2
66946;SDS011;53853;51.982;5.928;2023-11-21T00:00:55;13.23;;;11.82;;
66946;SDS011;53853;51.982;5.928;2023-11-21T00:03:27;12.70;;;9.75;;
66946;SDS011;53853;51.982;5.928;2023-11-21T00:05:59;12.70;;;9.63;;
66946;SDS011;53853;51.982;5.928;2023-11-21T00:08:29;14.10;;;10.82;;
66946;SDS011;53853;51.982;5.928;2023-11-21T00:11:02;14.95;;;11.15;;
66946;SDS011;53853;51.982;5.928;2023-11-21T00:13:32;15.83;;;11.90;;
66946;SDS011;53853;51.982;5.928;2023-11-21T00:16:03;15.68;;;10.32;;
66946;SDS011;53853;51.982;5.928;2023-11-21T00:18:34;16.65;;;11.88;;
66946;SDS011;53853;51.982;5.928;2023-11-21T00:21:04;13.00;;;11.07;;
66946;SDS011;53853;51.982;5.928;2023-11-21T00:23:34;15.00;;;11.70;;
66946;SDS011;53853;51.982;5.928;2023-11-21T00:26:07;14.15;;;11.48;;
66946;SDS011;53853;51.982;5.928;2023-11-21T00:28:37;13.05;;;10.43;;
66946;SDS011;53853;51.982;5.928;2023-11-21T00:31:07;10.80;;;8.93;;
66946;SDS011;53853;51.982;5.928;2023-11-21T00:33:37;12.88;;;11.20;;
66946;SDS011;53853;51.982;5.928;2023-11-21T00:36:08;12.68;;;10.70;;
66946;SDS011;53853;51.982;5.928;2023-11-21T00:38:38;14.23;;;10.52;;
66946;SDS011;53853;51.982;5.928;2023-11-21T00:41:10;13.32;;;10.38;;
66946;SDS011;53853;51.982;5.928;2023-11-21T00:43:40;12.45;;;10.05;;
66946;SDS011;53853;51.982;5.928;2023-11-21T00:46:10;12.35;;;9.38;;
66946;SDS011;53853;51.982;5.928;2023-11-21T00:48:40;14.63;;;10.85;;
66946;SDS011;53853;51.982;5.928;2023-11-21T00:51:10;12.95;;;9.93;;
66946;SDS011;53853;51.982;5.928;2023-11-21T00:53:40;12.45;;;10.52;;
66946;SDS011;53853;51.982;5.928;2023-11-21T00:56:12;16.80;;;10.98;;
66946;SDS011;53853;51.982;5.928;2023-11-21T00:58:42;14.80;;;10.85;;
66946;SDS011;53853;51.982;5.928;2023-11-21T01:01:15;13.88;;;11.80;;
66946;SDS011;53853;51.982;5.928;2023-11-21T01:03:45;16.92;;;13.07;;
66946;SDS011;53853;51.982;5.928;2023-11-21T01:06:15;15.38;;;12.00;;
66946;SDS011;53853;51.982;5.928;2023-11-21T01:08:45;16.33;;;11.75;;
66946;SDS011;53853;51.982;5.928;2023-11-21T01:11:17;14.13;;;12.02;;
66946;SDS011;53853;51.982;5.928;2023-11-21T01:13:47;14.73;;;11.52;;
66946;SDS011;53853;51.982;5.928;2023-11-21T01:16:18;15.02;;;11.32;;
66946;SDS011;53853;51.982;5.928;2023-11-21T01:18:48;14.77;;;12.05;;
66946;SDS011;53853;51.982;5.928;2023-11-21T01:21:18;15.18;;;11.57;;
66946;SDS011;53853;51.982;5.928;2023-11-21T01:23:48;18.08;;;12.95;;
66946;SDS011;53853;51.982;5.928;2023-11-21T01:26:21;15.60;;;12.40;;
66946;SDS011;53853;51.982;5.928;2023-11-21T01:28:50;16.80;;;13.43;;
66946;SDS011;53853;51.982;5.928;2023-11-21T01:31:20;19.83;;;14.07;;
66946;SDS011;53853;51.982;5.928;2023-11-21T01:33:53;15.60;;;12.32;;
66946;SDS011;53853;51.982;5.928;2023-11-21T01:36:23;14.55;;;11.85;;
66946;SDS011;53853;51.982;5.928;2023-11-21T01:38:58;17.55;;;13.45;;
66946;SDS011;53853;51.982;5.928;2023-11-21T01:41:31;19.80;;;13.38;;
66946;SDS011;53853;51.982;5.928;2023-11-21T01:44:02;16.88;;;12.93;;
66946;SDS011;53853;51.982;5.928;2023-11-21T01:46:33;17.92;;;13.40;;
66946;SDS011;53853;51.982;5.928;2023-11-21T01:49:03;19.15;;;15.38;;
66946;SDS011;53853;51.982;5.928;2023-11-21T01:51:35;19.25;;;14.35;;
66946;SDS011;53853;51.982;5.928;2023-11-21T01:54:06;18.73;;;13.35;;
66946;SDS011;53853;51.982;5.928;2023-11-21T01:56:40;20.95;;;15.07;;
66946;SDS011;53853;51.982;5.928;2023-11-21T01:59:10;22.38;;;14.93;;
66946;SDS011;53853;51.982;5.928;2023-11-21T02:01:41;16.15;;;12.35;;
66946;SDS011;53853;51.982;5.928;2023-11-21T02:04:11;17.98;;;13.00;;
66946;SDS011;53853;51.982;5.928;2023-11-21T02:06:41;14.98;;;12.57;;
66946;SDS011;53853;51.982;5.928;2023-11-21T02:09:11;18.00;;;12.52;;
66946;SDS011;53853;51.982;5.928;2023-11-21T02:11:44;17.00;;;12.77;;
66946;SDS011;53853;51.982;5.928;2023-11-21T02:14:15;17.30;;;12.68;;
66946;SDS011;53853;51.982;5.928;2023-11-21T02:16:46;18.20;;;13.23;;
66946;SDS011;53853;51.982;5.928;2023-11-21T02:19:17;17.65;;;13.32;;
66946;SDS011;53853;51.982;5.928;2023-11-21T02:21:51;17.95;;;12.90;;
66946;SDS011;53853;51.982;5.928;2023-11-21T02:24:24;18.08;;;12.38;;
66946;SDS011;53853;51.982;5.928;2023-11-21T02:26:53;17.60;;;13.32;;
66946;SDS011;53853;51.982;5.928;2023-11-21T02:29:23;21.23;;;15.40;;
66946;SDS011;53853;51.982;5.928;2023-11-21T02:31:54;21.33;;;14.70;;
66946;SDS011;53853;51.982;5.928;2023-11-21T02:34:25;20.08;;;13.45;;
66946;SDS011;53853;51.982;5.928;2023-11-21T02:36:55;21.17;;;14.73;;
66946;SDS011;53853;51.982;5.928;2023-11-21T02:39:28;24.08;;;14.80;;
66946;SDS011;53853;51.982;5.928;2023-11-21T02:41:57;18.65;;;13.80;;
66946;SDS011;53853;51.982;5.928;2023-11-21T02:44:27;20.67;;;14.05;;
66946;SDS011;53853;51.982;5.928;2023-11-21T02:46:57;23.42;;;15.65;;
66946;SDS011;53853;51.982;5.928;2023-11-21T02:49:27;19.10;;;15.00;;
66946;SDS011;53853;51.982;5.928;2023-11-21T02:51:57;24.08;;;16.80;;
66946;SDS011;53853;51.982;5.928;2023-11-21T02:54:29;33.38;;;20.02;;
66946;SDS011;53853;51.982;5.928;2023-11-21T02:56:59;30.67;;;22.75;;
66946;SDS011;53853;51.982;5.928;2023-11-21T02:59:29;22.23;;;15.43;;
66946;SDS011;53853;51.982;5.928;2023-11-21T03:01:59;35.08;;;21.48;;
66946;SDS011;53853;51.982;5.928;2023-11-21T03:04:29;23.48;;;17.10;;
66946;SDS011;53853;51.982;5.928;2023-11-21T03:07:00;25.90;;;17.67;;
66946;SDS011;53853;51.982;5.928;2023-11-21T03:09:33;25.45;;;18.02;;
66946;SDS011;53853;51.982;5.928;2023-11-21T03:12:04;24.15;;;17.35;;
66946;SDS011;53853;51.982;5.928;2023-11-21T03:14:34;23.65;;;15.90;;
66946;SDS011;53853;51.982;5.928;2023-11-21T03:17:04;20.67;;;15.88;;
66946;SDS011;53853;51.982;5.928;2023-11-21T03:19:34;23.98;;;17.85;;
66946;SDS011;53853;51.982;5.928;2023-11-21T03:22:04;20.15;;;14.88;;
66946;SDS011;53853;51.982;5.928;2023-11-21T03:24:37;16.30;;;13.18;;
66946;SDS011;53853;51.982;5.928;2023-11-21T03:27:06;21.45;;;16.48;;
66946;SDS011;53853;51.982;5.928;2023-11-21T03:29:37;17.48;;;14.13;;
66946;SDS011;53853;51.982;5.928;2023-11-21T03:32:07;17.33;;;12.65;;
66946;SDS011;53853;51.982;5.928;2023-11-21T03:34:52;15.80;;;12.93;;
66946;SDS011;53853;51.982;5.928;2023-11-21T03:37:23;14.43;;;10.93;;
66946;SDS011;53853;51.982;5.928;2023-11-21T03:39:57;15.55;;;11.13;;
66946;SDS011;53853;51.982;5.928;2023-11-21T03:42:26;17.80;;;12.57;;
66946;SDS011;53853;51.982;5.928;2023-11-21T03:44:56;15.00;;;11.38;;
66946;SDS011;53853;51.982;5.928;2023-11-21T03:47:27;17.35;;;13.32;;
66946;SDS011;53853;51.982;5.928;2023-11-21T03:49:57;17.83;;;12.90;;
66946;SDS011;53853;51.982;5.928;2023-11-21T03:52:27;13.38;;;10.77;;
66946;SDS011;53853;51.982;5.928;2023-11-21T03:55:02;13.50;;;11.32;;
66946;SDS011;53853;51.982;5.928;2023-11-21T03:57:32;13.82;;;11.38;;
66946;SDS011;53853;51.982;5.928;2023-11-21T04:00:04;14.10;;;11.52;;
66946;SDS011;53853;51.982;5.928;2023-11-21T04:02:38;17.35;;;13.25;;
66946;SDS011;53853;51.982;5.928;2023-11-21T04:05:08;15.23;;;12.43;;
66946;SDS011;53853;51.982;5.928;2023-11-21T04:07:38;17.73;;;14.00;;
66946;SDS011;53853;51.982;5.928;2023-11-21T04:10:10;15.98;;;12.65;;
66946;SDS011;53853;51.982;5.928;2023-11-21T04:12:41;14.15;;;10.60;;
66946;SDS011;53853;51.982;5.928;2023-11-21T04:15:11;14.05;;;11.18;;
66946;SDS011;53853;51.982;5.928;2023-11-21T04:17:41;14.02;;;10.85;;
66946;SDS011;53853;51.982;5.928;2023-11-21T04:20:11;15.07;;;11.63;;
66946;SDS011;53853;51.982;5.928;2023-11-21T04:22:44;19.17;;;14.70;;
66946;SDS011;53853;51.982;5.928;2023-11-21T04:25:17;15.95;;;12.55;;
66946;SDS011;53853;51.982;5.928;2023-11-21T04:27:48;15.30;;;12.18;;
66946;SDS011;53853;51.982;5.928;2023-11-21T04:30:18;17.27;;;12.73;;
66946;SDS011;53853;51.982;5.928;2023-11-21T04:32:48;17.05;;;12.60;;
66946;SDS011;53853;51.982;5.928;2023-11-21T04:35:18;15.45;;;11.88;;
66946;SDS011;53853;51.982;5.928;2023-11-21T04:37:48;16.58;;;13.27;;
66946;SDS011;53853;51.982;5.928;2023-11-21T04:40:21;12.65;;;10.18;;
66946;SDS011;53853;51.982;5.928;2023-11-21T04:42:48;16.20;;;12.15;;
66946;SDS011;53853;51.982;5.928;2023-11-21T04:45:18;13.85;;;10.98;;
66946;SDS011;53853;51.982;5.928;2023-11-21T04:47:48;12.32;;;9.73;;
66946;SDS011;53853;51.982;5.928;2023-11-21T04:50:18;14.65;;;11.88;;
66946;SDS011;53853;51.982;5.928;2023-11-21T04:52:48;12.73;;;10.30;;
66946;SDS011;53853;51.982;5.928;2023-11-21T04:55:20;18.65;;;13.43;;
66946;SDS011;53853;51.982;5.928;2023-11-21T04:57:53;12.80;;;11.02;;
66946;SDS011;53853;51.982;5.928;2023-11-21T05:00:23;14.50;;;12.45;;
66946;SDS011;53853;51.982;5.928;2023-11-21T05:02:53;17.50;;;12.35;;
66946;SDS011;53853;51.982;5.928;2023-11-21T05:05:23;16.00;;;11.38;;
66946;SDS011;53853;51.982;5.928;2023-11-21T05:07:53;14.20;;;11.52;;
66946;SDS011;53853;51.982;5.928;2023-11-21T05:10:25;15.07;;;12.23;;
66946;SDS011;53853;51.982;5.928;2023-11-21T05:12:55;15.48;;;11.57;;
66946;SDS011;53853;51.982;5.928;2023-11-21T05:15:25;13.95;;;11.50;;
66946;SDS011;53853;51.982;5.928;2023-11-21T05:17:56;21.38;;;15.48;;
66946;SDS011;53853;51.982;5.928;2023-11-21T05:20:26;15.10;;;12.25;;
66946;SDS011;53853;51.982;5.928;2023-11-21T05:22:56;12.68;;;10.45;;
66946;SDS011;53853;51.982;5.928;2023-11-21T05:25:29;16.80;;;13.48;;
66946;SDS011;53853;51.982;5.928;2023-11-21T05:27:59;13.20;;;10.82;;
66946;SDS011;53853;51.982;5.928;2023-11-21T05:30:29;12.13;;;10.20;;
66946;SDS011;53853;51.982;5.928;2023-11-21T05:32:59;10.15;;;8.43;;
66946;SDS011;53853;51.982;5.928;2023-11-21T05:35:29;9.27;;;7.70;;
66946;SDS011;53853;51.982;5.928;2023-11-21T05:37:59;11.10;;;9.30;;
66946;SDS011;53853;51.982;5.928;2023-11-21T05:40:31;11.75;;;9.68;;
66946;SDS011;53853;51.982;5.928;2023-11-21T05:43:02;8.52;;;7.28;;
66946;SDS011;53853;51.982;5.928;2023-11-21T05:45:32;11.10;;;8.60;;
66946;SDS011;53853;51.982;5.928;2023-11-21T05:48:02;12.65;;;10.27;;
66946;SDS011;53853;51.982;5.928;2023-11-21T05:50:33;10.00;;;8.82;;
66946;SDS011;53853;51.982;5.928;2023-11-21T05:53:03;11.43;;;9.73;;
66946;SDS011;53853;51.982;5.928;2023-11-21T05:55:38;10.20;;;8.77;;
66946;SDS011;53853;51.982;5.928;2023-11-21T05:58:05;10.52;;;8.60;;
66946;SDS011;53853;51.982;5.928;2023-11-21T06:00:35;9.90;;;8.02;;
66946;SDS011;53853;51.982;5.928;2023-11-21T06:03:05;9.30;;;8.07;;
66946;SDS011;53853;51.982;5.928;2023-11-21T06:05:35;10.35;;;8.82;;
66946;SDS011;53853;51.982;5.928;2023-11-21T06:08:05;14.20;;;10.18;;
66946;SDS011;53853;51.982;5.928;2023-11-21T06:10:39;9.98;;;8.95;;
66946;SDS011;53853;51.982;5.928;2023-11-21T06:13:09;9.65;;;8.00;;
66946;SDS011;53853;51.982;5.928;2023-11-21T06:15:40;16.13;;;13.40;;
66946;SDS011;53853;51.982;5.928;2023-11-21T06:18:09;11.00;;;9.25;;
66946;SDS011;53853;51.982;5.928;2023-11-21T06:20:40;10.85;;;9.38;;
66946;SDS011;53853;51.982;5.928;2023-11-21T06:23:09;12.27;;;10.98;;
66946;SDS011;53853;51.982;5.928;2023-11-21T06:25:42;13.52;;;10.57;;
66946;SDS011;53853;51.982;5.928;2023-11-21T06:28:12;12.55;;;9.60;;
66946;SDS011;53853;51.982;5.928;2023-11-21T06:30:43;9.65;;;7.93;;
66946;SDS011;53853;51.982;5.928;2023-11-21T06:33:14;14.40;;;12.57;;
66946;SDS011;53853;51.982;5.928;2023-11-21T06:35:44;11.23;;;9.88;;
66946;SDS011;53853;51.982;5.928;2023-11-21T06:38:15;12.13;;;9.68;;
66946;SDS011;53853;51.982;5.928;2023-11-21T06:40:48;10.50;;;9.13;;
66946;SDS011;53853;51.982;5.928;2023-11-21T06:43:18;9.65;;;8.63;;
66946;SDS011;53853;51.982;5.928;2023-11-21T06:45:48;9.52;;;8.10;;
66946;SDS011;53853;51.982;5.928;2023-11-21T06:48:17;9.23;;;7.50;;
66946;SDS011;53853;51.982;5.928;2023-11-21T06:50:47;9.40;;;8.40;;
66946;SDS011;53853;51.982;5.928;2023-11-21T06:53:18;10.35;;;9.30;;
66946;SDS011;53853;51.982;5.928;2023-11-21T06:55:50;11.40;;;8.48;;
66946;SDS011;53853;51.982;5.928;2023-11-21T06:58:20;9.63;;;7.95;;
66946;SDS011;53853;51.982;5.928;2023-11-21T07:00:50;8.73;;;7.20;;
66946;SDS011;53853;51.982;5.928;2023-11-21T07:03:20;10.88;;;8.80;;
66946;SDS011;53853;51.982;5.928;2023-11-21T07:05:50;10.55;;;9.48;;
66946;SDS011;53853;51.982;5.928;2023-11-21T07:08:19;10.70;;;8.30;;
66946;SDS011;53853;51.982;5.928;2023-11-21T07:10:52;9.80;;;8.57;;
66946;SDS011;53853;51.982;5.928;2023-11-21T07:13:22;11.65;;;8.18;;
66946;SDS011;53853;51.982;5.928;2023-11-21T07:15:51;9.07;;;7.88;;
66946;SDS011;53853;51.982;5.928;2023-11-21T07:18:21;9.07;;;7.55;;
66946;SDS011;53853;51.982;5.928;2023-11-21T07:20:51;18.15;;;13.82;;
66946;SDS011;53853;51.982;5.928;2023-11-21T07:23:21;15.20;;;11.75;;
66946;SDS011;53853;51.982;5.928;2023-11-21T07:25:54;14.63;;;10.68;;
66946;SDS011;53853;51.982;5.928;2023-11-21T07:28:24;14.77;;;10.48;;
66946;SDS011;53853;51.982;5.928;2023-11-21T07:30:54;14.52;;;11.10;;
66946;SDS011;53853;51.982;5.928;2023-11-21T07:33:25;17.98;;;11.70;;
66946;SDS011;53853;51.982;5.928;2023-11-21T07:35:55;18.00;;;15.23;;
66946;SDS011;53853;51.982;5.928;2023-11-21T07:38:24;16.25;;;12.82;;
66946;SDS011;53853;51.982;5.928;2023-11-21T07:40:57;18.60;;;13.77;;
66946;SDS011;53853;51.982;5.928;2023-11-21T07:43:27;17.10;;;12.13;;
66946;SDS011;53853;51.982;5.928;2023-11-21T07:46:00;15.75;;;10.57;;
66946;SDS011;53853;51.982;5.928;2023-11-21T07:48:31;10.93;;;8.20;;
66946;SDS011;53853;51.982;5.928;2023-11-21T07:51:01;11.85;;;9.52;;
66946;SDS011;53853;51.982;5.928;2023-11-21T07:53:32;10.10;;;8.93;;
66946;SDS011;53853;51.982;5.928;2023-11-21T07:56:06;15.70;;;10.13;;
66946;SDS011;53853;51.982;5.928;2023-11-21T07:58:37;15.73;;;12.45;;
66946;SDS011;53853;51.982;5.928;2023-11-21T08:01:07;13.70;;;11.20;;
66946;SDS011;53853;51.982;5.928;2023-11-21T08:03:37;13.88;;;11.13;;
66946;SDS011;53853;51.982;5.928;2023-11-21T08:06:07;13.85;;;10.35;;
66946;SDS011;53853;51.982;5.928;2023-11-21T08:08:37;13.57;;;10.18;;
66946;SDS011;53853;51.982;5.928;2023-11-21T08:11:11;14.15;;;11.55;;
66946;SDS011;53853;51.982;5.928;2023-11-21T08:13:41;14.38;;;11.38;;
66946;SDS011;53853;51.982;5.928;2023-11-21T08:16:11;14.57;;;10.10;;
66946;SDS011;53853;51.982;5.928;2023-11-21T08:18:42;12.30;;;9.80;;
66946;SDS011;53853;51.982;5.928;2023-11-21T08:21:12;12.90;;;9.18;;
66946;SDS011;53853;51.982;5.928;2023-11-21T08:23:42;14.20;;;11.02;;
66946;SDS011;53853;51.982;5.928;2023-11-21T08:26:15;16.52;;;12.23;;
66946;SDS011;53853;51.982;5.928;2023-11-21T08:28:45;14.70;;;11.97;;
66946;SDS011;53853;51.982;5.928;2023-11-21T08:31:15;14.38;;;11.48;;
66946;SDS011;53853;51.982;5.928;2023-11-21T08:33:45;18.73;;;13.50;;
66946;SDS011;53853;51.982;5.928;2023-11-21T08:36:15;18.00;;;13.18;;
66946;SDS011;53853;51.982;5.928;2023-11-21T08:38:44;15.02;;;11.73;;
66946;SDS011;53853;51.982;5.928;2023-11-21T08:41:17;16.20;;;13.20;;
66946;SDS011;53853;51.982;5.928;2023-11-21T08:43:47;15.23;;;11.97;;
66946;SDS011;53853;51.982;5.928;2023-11-21T08:46:19;16.27;;;12.55;;
66946;SDS011;53853;51.982;5.928;2023-11-21T08:48:51;14.55;;;11.82;;
66946;SDS011;53853;51.982;5.928;2023-11-21T08:51:21;13.75;;;10.88;;
66946;SDS011;53853;51.982;5.928;2023-11-21T08:53:51;14.52;;;10.07;;
66946;SDS011;53853;51.982;5.928;2023-11-21T08:56:27;11.80;;;9.40;;
66946;SDS011;53853;51.982;5.928;2023-11-21T08:58:57;17.13;;;9.90;;
66946;SDS011;53853;51.982;5.928;2023-11-21T09:01:28;12.60;;;10.07;;
66946;SDS011;53853;51.982;5.928;2023-11-21T09:03:58;13.88;;;10.57;;
66946;SDS011;53853;51.982;5.928;2023-11-21T09:06:28;13.55;;;11.00;;
66946;SDS011;53853;51.982;5.928;2023-11-21T09:08:58;15.85;;;12.32;;
66946;SDS011;53853;51.982;5.928;2023-11-21T09:11:33;14.45;;;12.07;;
66946;SDS011;53853;51.982;5.928;2023-11-21T09:14:03;16.65;;;12.48;;
66946;SDS011;53853;51.982;5.928;2023-11-21T09:16:33;14.93;;;11.60;;
66946;SDS011;53853;51.982;5.928;2023-11-21T09:19:03;15.70;;;11.90;;
66946;SDS011;53853;51.982;5.928;2023-11-21T09:21:33;13.25;;;10.88;;
66946;SDS011;53853;51.982;5.928;2023-11-21T09:24:03;16.90;;;12.85;;
66946;SDS011;53853;51.982;5.928;2023-11-21T09:26:37;17.02;;;13.55;;
66946;SDS011;53853;51.982;5.928;2023-11-21T09:29:07;21.02;;;15.98;;
66946;SDS011;53853;51.982;5.928;2023-11-21T09:31:37;16.25;;;12.68;;
66946;SDS011;53853;51.982;5.928;2023-11-21T09:34:08;14.90;;;11.23;;
66946;SDS011;53853;51.982;5.928;2023-11-21T09:36:38;18.35;;;14.02;;
66946;SDS011;53853;51.982;5.928;2023-11-21T09:39:07;15.80;;;12.13;;
66946;SDS011;53853;51.982;5.928;2023-11-21T09:41:43;13.15;;;9.52;;
66946;SDS011;53853;51.982;5.928;2023-11-21T09:44:18;19.45;;;13.75;;
66946;SDS011;53853;51.982;5.928;2023-11-21T09:46:51;15.82;;;11.88;;
66946;SDS011;53853;51.982;5.928;2023-11-21T09:49:22;12.32;;;9.43;;
66946;SDS011;53853;51.982;5.928;2023-11-21T09:51:55;15.63;;;11.93;;
66946;SDS011;53853;51.982;5.928;2023-11-21T09:54:25;16.30;;;11.80;;
66946;SDS011;53853;51.982;5.928;2023-11-21T09:56:59;16.63;;;12.35;;
66946;SDS011;53853;51.982;5.928;2023-11-21T10:02:01;17.48;;;12.73;;
66946;SDS011;53853;51.982;5.928;2023-11-21T10:04:31;19.25;;;14.32;;
66946;SDS011;53853;51.982;5.928;2023-11-21T10:07:01;15.95;;;12.25;;
66946;SDS011;53853;51.982;5.928;2023-11-21T10:09:34;19.23;;;13.70;;
66946;SDS011;53853;51.982;5.928;2023-11-21T10:12:08;16.63;;;12.20;;
66946;SDS011;53853;51.982;5.928;2023-11-21T10:14:41;18.65;;;14.38;;
66946;SDS011;53853;51.982;5.928;2023-11-21T10:17:12;19.85;;;13.57;;
66946;SDS011;53853;51.982;5.928;2023-11-21T10:19:44;14.88;;;12.25;;
66946;SDS011;53853;51.982;5.928;2023-11-21T10:22:16;14.20;;;11.82;;
66946;SDS011;53853;51.982;5.928;2023-11-21T10:24:45;18.00;;;13.77;;
66946;SDS011;53853;51.982;5.928;2023-11-21T10:27:18;16.25;;;12.32;;
66946;SDS011;53853;51.982;5.928;2023-11-21T10:29:51;13.10;;;10.37;;
66946;SDS011;53853;51.982;5.928;2023-11-21T10:32:21;14.23;;;10.77;;
66946;SDS011;53853;51.982;5.928;2023-11-21T10:34:58;18.48;;;13.20;;
66946;SDS011;53853;51.982;5.928;2023-11-21T10:37:32;15.52;;;11.57;;
66946;SDS011;53853;51.982;5.928;2023-11-21T10:40:02;11.18;;;9.00;;
66946;SDS011;53853;51.982;5.928;2023-11-21T10:42:35;12.15;;;9.40;;
66946;SDS011;53853;51.982;5.928;2023-11-21T10:45:06;12.50;;;10.00;;
66946;SDS011;53853;51.982;5.928;2023-11-21T10:47:40;11.25;;;10.02;;
66946;SDS011;53853;51.982;5.928;2023-11-21T10:50:10;11.18;;;8.70;;
66946;SDS011;53853;51.982;5.928;2023-11-21T10:52:41;11.50;;;9.13;;
66946;SDS011;53853;51.982;5.928;2023-11-21T10:55:16;13.10;;;9.32;;
66946;SDS011;53853;51.982;5.928;2023-11-21T10:57:51;9.02;;;7.75;;
66946;SDS011;53853;51.982;5.928;2023-11-21T11:00:22;8.80;;;7.25;;
66946;SDS011;53853;51.982;5.928;2023-11-21T11:02:53;11.63;;;9.13;;
66946;SDS011;53853;51.982;5.928;2023-11-21T11:05:25;10.98;;;8.80;;
66946;SDS011;53853;51.982;5.928;2023-11-21T11:07:58;12.13;;;9.27;;
66946;SDS011;53853;51.982;5.928;2023-11-21T11:10:30;11.32;;;9.02;;
66946;SDS011;53853;51.982;5.928;2023-11-21T11:13:03;8.90;;;7.22;;
66946;SDS011;53853;51.982;5.928;2023-11-21T11:15:35;8.70;;;7.32;;
66946;SDS011;53853;51.982;5.928;2023-11-21T11:18:05;12.13;;;9.52;;
66946;SDS011;53853;51.982;5.928;2023-11-21T11:20:36;14.95;;;11.50;;
66946;SDS011;53853;51.982;5.928;2023-11-21T11:23:10;14.88;;;11.27;;
66946;SDS011;53853;51.982;5.928;2023-11-21T11:26:00;15.48;;;11.55;;
66946;SDS011;53853;51.982;5.928;2023-11-21T11:28:42;16.38;;;13.73;;
66946;SDS011;53853;51.982;5.928;2023-11-21T11:31:18;16.08;;;13.18;;
66946;SDS011;53853;51.982;5.928;2023-11-21T11:33:53;11.57;;;9.15;;
66946;SDS011;53853;51.982;5.928;2023-11-21T11:36:29;11.95;;;10.52;;
66946;SDS011;53853;51.982;5.928;2023-11-21T11:39:15;14.38;;;11.32;;
66946;SDS011;53853;51.982;5.928;2023-11-21T11:41:57;11.70;;;9.45;;
66946;SDS011;53853;51.982;5.928;2023-11-21T11:47:21;12.52;;;9.65;;
66946;SDS011;53853;51.982;5.928;2023-11-21T11:50:00;11.07;;;8.90;;
66946;SDS011;53853;51.982;5.928;2023-11-21T11:52:39;10.82;;;8.43;;
66946;SDS011;53853;51.982;5.928;2023-11-21T11:55:10;12.20;;;9.00;;
66946;SDS011;53853;51.982;5.928;2023-11-21T11:57:44;11.73;;;8.63;;
66946;SDS011;53853;51.982;5.928;2023-11-21T12:00:19;11.10;;;8.13;;
66946;SDS011;53853;51.982;5.928;2023-11-21T12:02:51;9.23;;;7.22;;
66946;SDS011;53853;51.982;5.928;2023-11-21T12:05:23;7.80;;;6.47;;
66946;SDS011;53853;51.982;5.928;2023-11-21T12:07:54;11.68;;;8.02;;
66946;SDS011;53853;51.982;5.928;2023-11-21T12:10:27;7.03;;;5.88;;
66946;SDS011;53853;51.982;5.928;2023-11-21T12:12:58;8.15;;;6.10;;
66946;SDS011;53853;51.982;5.928;2023-11-21T12:15:31;6.65;;;4.97;;
66946;SDS011;53853;51.982;5.928;2023-11-21T12:18:01;7.45;;;6.00;;
66946;SDS011;53853;51.982;5.928;2023-11-21T12:20:32;11.50;;;8.27;;
66946;SDS011;53853;51.982;5.928;2023-11-21T12:23:05;7.78;;;6.85;;
66946;SDS011;53853;51.982;5.928;2023-11-21T12:25:36;8.32;;;7.05;;
66946;SDS011;53853;51.982;5.928;2023-11-21T12:28:07;12.25;;;9.25;;
66946;SDS011;53853;51.982;5.928;2023-11-21T12:30:40;12.88;;;9.52;;
66946;SDS011;53853;51.982;5.928;2023-11-21T12:33:10;13.77;;;11.43;;
66946;SDS011;53853;51.982;5.928;2023-11-21T12:35:43;13.35;;;9.05;;
66946;SDS011;53853;51.982;5.928;2023-11-21T12:38:13;10.40;;;8.60;;
66946;SDS011;53853;51.982;5.928;2023-11-21T12:40:44;10.20;;;8.60;;
66946;SDS011;53853;51.982;5.928;2023-11-21T12:43:14;11.68;;;9.38;;
66946;SDS011;53853;51.982;5.928;2023-11-21T12:45:48;10.30;;;8.05;;
66946;SDS011;53853;51.982;5.928;2023-11-21T12:48:18;12.90;;;10.07;;
66946;SDS011;53853;51.982;5.928;2023-11-21T12:50:50;13.65;;;10.45;;
66946;SDS011;53853;51.982;5.928;2023-11-21T12:53:21;15.70;;;11.73;;
66946;SDS011;53853;51.982;5.928;2023-11-21T12:55:51;14.25;;;11.02;;
66946;SDS011;53853;51.982;5.928;2023-11-21T12:58:24;17.30;;;13.03;;
66946;SDS011;53853;51.982;5.928;2023-11-21T13:00:57;18.70;;;14.43;;
66946;SDS011;53853;51.982;5.928;2023-11-21T13:03:29;17.88;;;14.13;;
66946;SDS011;53853;51.982;5.928;2023-11-21T13:06:00;15.75;;;12.30;;
66946;SDS011;53853;51.982;5.928;2023-11-21T13:08:30;12.60;;;10.23;;
66946;SDS011;53853;51.982;5.928;2023-11-21T13:11:00;9.63;;;8.07;;
66946;SDS011;53853;51.982;5.928;2023-11-21T13:13:31;9.98;;;7.75;;
66946;SDS011;53853;51.982;5.928;2023-11-21T13:16:05;14.02;;;10.30;;
66946;SDS011;53853;51.982;5.928;2023-11-21T13:18:35;17.30;;;11.73;;
66946;SDS011;53853;51.982;5.928;2023-11-21T13:21:07;16.67;;;13.38;;
66946;SDS011;53853;51.982;5.928;2023-11-21T13:23:39;14.32;;;11.57;;
66946;SDS011;53853;51.982;5.928;2023-11-21T13:26:11;12.45;;;10.73;;
66946;SDS011;53853;51.982;5.928;2023-11-21T13:28:41;21.02;;;15.95;;
66946;SDS011;53853;51.982;5.928;2023-11-21T13:31:15;17.67;;;13.50;;
66946;SDS011;53853;51.982;5.928;2023-11-21T13:33:53;14.20;;;11.85;;
66946;SDS011;53853;51.982;5.928;2023-11-21T13:36:30;16.55;;;12.50;;
66946;SDS011;53853;51.982;5.928;2023-11-21T13:39:01;15.27;;;13.00;;
66946;SDS011;53853;51.982;5.928;2023-11-21T13:41:33;11.82;;;10.32;;
66946;SDS011;53853;51.982;5.928;2023-11-21T13:44:04;15.38;;;12.13;;
66946;SDS011;53853;51.982;5.928;2023-11-21T13:46:44;13.60;;;10.23;;
66946;SDS011;53853;51.982;5.928;2023-11-21T13:49:14;14.73;;;12.13;;
66946;SDS011;53853;51.982;5.928;2023-11-21T13:51:48;14.40;;;11.35;;
66946;SDS011;53853;51.982;5.928;2023-11-21T13:54:20;14.63;;;11.15;;
66946;SDS011;53853;51.982;5.928;2023-11-21T13:56:51;14.00;;;11.50;;
66946;SDS011;53853;51.982;5.928;2023-11-21T13:59:20;11.85;;;10.13;;
66946;SDS011;53853;51.982;5.928;2023-11-21T14:01:55;12.60;;;9.88;;
66946;SDS011;53853;51.982;5.928;2023-11-21T14:04:25;16.60;;;12.60;;
66946;SDS011;53853;51.982;5.928;2023-11-21T14:07:18;14.35;;;10.50;;
66946;SDS011;53853;51.982;5.928;2023-11-21T14:09:58;11.48;;;8.27;;
66946;SDS011;53853;51.982;5.928;2023-11-21T14:12:29;11.93;;;8.60;;
66946;SDS011;53853;51.982;5.928;2023-11-21T14:15:02;11.98;;;8.70;;
66946;SDS011;53853;51.982;5.928;2023-11-21T14:17:37;11.93;;;9.27;;
66946;SDS011;53853;51.982;5.928;2023-11-21T14:20:08;11.15;;;8.95;;
66946;SDS011;53853;51.982;5.928;2023-11-21T14:22:41;12.50;;;9.30;;
66946;SDS011;53853;51.982;5.928;2023-11-21T14:25:12;11.15;;;8.68;;
66946;SDS011;53853;51.982;5.928;2023-11-21T14:27:43;14.23;;;11.02;;
66946;SDS011;53853;51.982;5.928;2023-11-21T14:30:13;11.80;;;10.00;;
66946;SDS011;53853;51.982;5.928;2023-11-21T14:32:48;14.10;;;10.35;;
66946;SDS011;53853;51.982;5.928;2023-11-21T14:35:18;9.43;;;7.80;;
66946;SDS011;53853;51.982;5.928;2023-11-21T14:37:48;12.32;;;9.68;;
66946;SDS011;53853;51.982;5.928;2023-11-21T14:40:18;14.82;;;11.93;;
66946;SDS011;53853;51.982;5.928;2023-11-21T14:42:50;12.40;;;9.95;;
66946;SDS011;53853;51.982;5.928;2023-11-21T14:45:22;11.25;;;8.88;;
66946;SDS011;53853;51.982;5.928;2023-11-21T14:47:55;10.43;;;8.95;;
66946;SDS011;53853;51.982;5.928;2023-11-21T14:50:32;14.50;;;11.45;;
66946;SDS011;53853;51.982;5.928;2023-11-21T14:53:14;13.65;;;11.82;;
66946;SDS011;53853;51.982;5.928;2023-11-21T14:55:42;11.38;;;9.88;;